KBEH/BEH METAR and TAF weather

Enter ICAO airport designator
Station Type Date Time Source
KBEH METAR 2019/10/18 11:46 UTC NOAA

KBEH 181146Z AUTO 00000KT 3SM BR OVC031 03/03 A3009 RMK AO2 T00330028


Station Type Date Time Source
KBEH Decoded METAR 2019/10/18 11:46 UTC NOAA

SOUTHWEST MICHIGAN REGIONAL, MI, United States (KBEH) 42-08N 86-25W 191M
Oct 18, 2019 - 07:46 AM EDT / 2019.10.18 1146 UTC
Wind: Calm:0
Visibility: 3 mile(s):0
Sky conditions: overcast
Weather: mist
Temperature: 37.9 F (3.3 C)
Dew Point: 37.0 F (2.8 C)
Relative Humidity: 96%
Pressure (altimeter): 30.09 in. Hg (1018 hPa)
ob: KBEH 181146Z AUTO 00000KT 3SM BR OVC031 03/03 A3009 RMK AO2 T00330028
cycle: 12

Station Type Date Time Source
KBEH TAF UTC NOAA

Error!

Example: see airport list